sensor_id;sensor_type;location;lat;lon;timestamp;temperature;humidity
30385;DHT22;17181;51.002;4.096;2023-10-08T08:55:32;18.00;99.90
30385;DHT22;17181;51.002;4.096;2023-10-08T08:57:59;18.00;99.90
30385;DHT22;17181;51.002;4.096;2023-10-08T09:00:27;18.10;99.90
30385;DHT22;17181;51.002;4.096;2023-10-08T12:06:34;23.10;97.90
30385;DHT22;17181;51.002;4.096;2023-10-08T12:09:04;23.20;97.70
30385;DHT22;17181;51.002;4.096;2023-10-08T12:11:42;23.40;97.70
30385;DHT22;17181;51.002;4.096;2023-10-08T12:14:09;23.40;97.70
30385;DHT22;17181;51.002;4.096;2023-10-08T12:16:44;23.40;97.60
30385;DHT22;17181;51.002;4.096;2023-10-08T12:19:11;23.50;97.30
30385;DHT22;17181;51.002;4.096;2023-10-08T12:21:48;23.50;97.30
30385;DHT22;17181;51.002;4.096;2023-10-08T12:27:42;23.70;97.00
30385;DHT22;17181;51.002;4.096;2023-10-08T12:30:10;23.80;97.00
30385;DHT22;17181;51.002;4.096;2023-10-08T12:35:36;23.90;96.20
30385;DHT22;17181;51.002;4.096;2023-10-08T12:38:03;24.10;96.20
30385;DHT22;17181;51.002;4.096;2023-10-08T12:40:55;24.10;95.90
30385;DHT22;17181;51.002;4.096;2023-10-08T12:43:42;24.20;95.70
30385;DHT22;17181;51.002;4.096;2023-10-08T12:46:16;24.20;95.10
30385;DHT22;17181;51.002;4.096;2023-10-08T12:49:03;24.40;95.10
30385;DHT22;17181;51.002;4.096;2023-10-08T12:57:16;24.60;94.20
30385;DHT22;17181;51.002;4.096;2023-10-08T16:11:21;28.90;70.50
30385;DHT22;17181;51.002;4.096;2023-10-08T16:13:49;28.80;71.00
30385;DHT22;17181;51.002;4.096;2023-10-08T16:16:15;28.50;71.20
30385;DHT22;17181;51.002;4.096;2023-10-08T16:18:41;28.30;71.70
30385;DHT22;17181;51.002;4.096;2023-10-08T16:21:07;28.10;72.20
30385;DHT22;17181;51.002;4.096;2023-10-08T16:23:38;27.90;72.60
30385;DHT22;17181;51.002;4.096;2023-10-08T16:26:04;27.60;73.10
30385;DHT22;17181;51.002;4.096;2023-10-08T16:28:31;27.40;73.50
30385;DHT22;17181;51.002;4.096;2023-10-08T16:30:57;27.20;73.90
30385;DHT22;17181;51.002;4.096;2023-10-08T16:33:24;27.00;74.40
30385;DHT22;17181;51.002;4.096;2023-10-08T16:35:50;26.90;74.90
30385;DHT22;17181;51.002;4.096;2023-10-08T16:38:19;26.80;75.30
30385;DHT22;17181;51.002;4.096;2023-10-08T16:40:45;26.60;75.70
30385;DHT22;17181;51.002;4.096;2023-10-08T16:43:12;26.50;76.20
30385;DHT22;17181;51.002;4.096;2023-10-08T16:45:45;26.40;76.60
30385;DHT22;17181;51.002;4.096;2023-10-08T16:48:11;26.30;77.00
30385;DHT22;17181;51.002;4.096;2023-10-08T16:50:38;26.10;77.40
30385;DHT22;17181;51.002;4.096;2023-10-08T16:53:04;26.00;77.90
30385;DHT22;17181;51.002;4.096;2023-10-08T16:55:30;25.80;78.30
30385;DHT22;17181;51.002;4.096;2023-10-08T16:58:00;25.60;78.80
30385;DHT22;17181;51.002;4.096;2023-10-08T17:00:26;25.40;79.20
30385;DHT22;17181;51.002;4.096;2023-10-08T17:02:57;25.30;79.70
30385;DHT22;17181;51.002;4.096;2023-10-08T17:05:24;25.10;80.50
30385;DHT22;17181;51.002;4.096;2023-10-08T17:07:52;25.00;80.90
30385;DHT22;17181;51.002;4.096;2023-10-08T17:10:19;24.80;81.10
30385;DHT22;17181;51.002;4.096;2023-10-08T17:12:46;24.70;81.50
30385;DHT22;17181;51.002;4.096;2023-10-08T17:15:12;24.50;81.80
30385;DHT22;17181;51.002;4.096;2023-10-08T17:17:40;24.30;82.10
30385;DHT22;17181;51.002;4.096;2023-10-08T17:20:06;24.10;82.70
30385;DHT22;17181;51.002;4.096;2023-10-08T17:22:36;23.90;83.20
30385;DHT22;17181;51.002;4.096;2023-10-08T17:25:02;23.80;83.80
30385;DHT22;17181;51.002;4.096;2023-10-08T17:27:32;23.60;83.90
30385;DHT22;17181;51.002;4.096;2023-10-08T17:30:00;23.50;84.20
30385;DHT22;17181;51.002;4.096;2023-10-08T17:32:25;23.30;84.50
30385;DHT22;17181;51.002;4.096;2023-10-08T17:34:52;23.20;84.90
30385;DHT22;17181;51.002;4.096;2023-10-08T17:37:20;22.90;85.20
30385;DHT22;17181;51.002;4.096;2023-10-08T17:39:47;22.80;85.70
30385;DHT22;17181;51.002;4.096;2023-10-08T17:42:13;22.70;86.10
30385;DHT22;17181;51.002;4.096;2023-10-08T17:44:39;22.50;86.20
30385;DHT22;17181;51.002;4.096;2023-10-08T17:47:08;22.40;86.30
30385;DHT22;17181;51.002;4.096;2023-10-08T17:49:35;22.20;86.70
30385;DHT22;17181;51.002;4.096;2023-10-08T17:52:03;22.10;87.10
30385;DHT22;17181;51.002;4.096;2023-10-08T17:54:32;21.90;87.30
30385;DHT22;17181;51.002;4.096;2023-10-08T17:56:59;21.80;87.60
30385;DHT22;17181;51.002;4.096;2023-10-08T17:59:25;21.60;87.80
30385;DHT22;17181;51.002;4.096;2023-10-08T18:01:52;21.50;88.20
30385;DHT22;17181;51.002;4.096;2023-10-08T18:04:18;21.30;88.70
30385;DHT22;17181;51.002;4.096;2023-10-08T18:06:48;21.20;88.90
30385;DHT22;17181;51.002;4.096;2023-10-08T18:09:14;21.10;89.10
30385;DHT22;17181;51.002;4.096;2023-10-08T18:11:48;21.10;89.30
30385;DHT22;17181;51.002;4.096;2023-10-08T18:14:14;21.00;89.70
30385;DHT22;17181;51.002;4.096;2023-10-08T18:16:42;20.90;90.10
30385;DHT22;17181;51.002;4.096;2023-10-08T18:19:09;20.80;90.20
30385;DHT22;17181;51.002;4.096;2023-10-08T18:21:39;20.70;90.20
30385;DHT22;17181;51.002;4.096;2023-10-08T18:24:07;20.60;90.30
30385;DHT22;17181;51.002;4.096;2023-10-08T18:26:33;20.50;90.40
30385;DHT22;17181;51.002;4.096;2023-10-08T18:29:02;20.40;90.60
30385;DHT22;17181;51.002;4.096;2023-10-08T18:31:31;20.30;90.70
30385;DHT22;17181;51.002;4.096;2023-10-08T18:33:57;20.30;90.80
30385;DHT22;17181;51.002;4.096;2023-10-08T18:36:25;20.20;90.90
30385;DHT22;17181;51.002;4.096;2023-10-08T18:38:51;20.10;91.00
30385;DHT22;17181;51.002;4.096;2023-10-08T18:41:17;19.90;91.10
30385;DHT22;17181;51.002;4.096;2023-10-08T18:43:43;19.90;91.30
30385;DHT22;17181;51.002;4.096;2023-10-08T18:46:09;19.80;91.40
30385;DHT22;17181;51.002;4.096;2023-10-08T18:48:36;19.70;91.60
30385;DHT22;17181;51.002;4.096;2023-10-08T18:51:15;19.60;91.70
30385;DHT22;17181;51.002;4.096;2023-10-08T18:53:47;19.60;91.90
30385;DHT22;17181;51.002;4.096;2023-10-08T18:56:16;19.50;92.00
30385;DHT22;17181;51.002;4.096;2023-10-08T18:58:45;19.50;92.10
30385;DHT22;17181;51.002;4.096;2023-10-08T19:01:14;19.40;92.20
30385;DHT22;17181;51.002;4.096;2023-10-08T19:03:44;19.40;92.40
30385;DHT22;17181;51.002;4.096;2023-10-08T19:06:09;19.40;92.50
30385;DHT22;17181;51.002;4.096;2023-10-08T19:08:39;19.30;92.60
30385;DHT22;17181;51.002;4.096;2023-10-08T19:11:06;19.30;92.70
30385;DHT22;17181;51.002;4.096;2023-10-08T19:13:37;19.20;92.70
30385;DHT22;17181;51.002;4.096;2023-10-08T19:16:07;19.10;92.80
30385;DHT22;17181;51.002;4.096;2023-10-08T19:18:34;19.10;92.90
30385;DHT22;17181;51.002;4.096;2023-10-08T19:21:05;19.00;93.40
30385;DHT22;17181;51.002;4.096;2023-10-08T19:23:35;19.00;93.10
30385;DHT22;17181;51.002;4.096;2023-10-08T19:26:04;18.90;93.10
30385;DHT22;17181;51.002;4.096;2023-10-08T19:28:33;18.80;93.20
30385;DHT22;17181;51.002;4.096;2023-10-08T19:31:08;18.80;93.30
30385;DHT22;17181;51.002;4.096;2023-10-08T19:33:37;18.70;93.50
30385;DHT22;17181;51.002;4.096;2023-10-08T19:36:04;18.70;93.50
30385;DHT22;17181;51.002;4.096;2023-10-08T19:38:29;18.60;93.70
30385;DHT22;17181;51.002;4.096;2023-10-08T19:40:55;18.60;93.80
30385;DHT22;17181;51.002;4.096;2023-10-08T19:43:23;18.60;94.00
30385;DHT22;17181;51.002;4.096;2023-10-08T19:45:49;18.60;94.20
30385;DHT22;17181;51.002;4.096;2023-10-08T19:48:17;18.50;94.20
30385;DHT22;17181;51.002;4.096;2023-10-08T19:50:46;18.40;94.20
30385;DHT22;17181;51.002;4.096;2023-10-08T19:53:16;18.30;94.20
30385;DHT22;17181;51.002;4.096;2023-10-08T19:55:47;18.30;94.30
30385;DHT22;17181;51.002;4.096;2023-10-08T19:58:20;18.30;94.40
30385;DHT22;17181;51.002;4.096;2023-10-08T20:00:52;18.20;94.40
30385;DHT22;17181;51.002;4.096;2023-10-08T20:03:18;18.20;94.60
30385;DHT22;17181;51.002;4.096;2023-10-08T20:05:46;18.10;94.60
30385;DHT22;17181;51.002;4.096;2023-10-08T20:08:15;18.10;94.70
30385;DHT22;17181;51.002;4.096;2023-10-08T20:10:42;18.00;94.80
30385;DHT22;17181;51.002;4.096;2023-10-08T20:13:10;18.00;94.80
30385;DHT22;17181;51.002;4.096;2023-10-08T20:15:37;18.00;94.80
30385;DHT22;17181;51.002;4.096;2023-10-08T20:18:04;18.00;95.20
30385;DHT22;17181;51.002;4.096;2023-10-08T20:20:33;17.90;95.00
30385;DHT22;17181;51.002;4.096;2023-10-08T20:23:01;17.80;95.10
30385;DHT22;17181;51.002;4.096;2023-10-08T20:25:35;17.80;95.10
30385;DHT22;17181;51.002;4.096;2023-10-08T20:28:05;17.80;95.20
30385;DHT22;17181;51.002;4.096;2023-10-08T20:30:33;17.70;95.20
30385;DHT22;17181;51.002;4.096;2023-10-08T20:33:02;17.80;95.20
30385;DHT22;17181;51.002;4.096;2023-10-08T20:35:32;17.50;95.20
30385;DHT22;17181;51.002;4.096;2023-10-08T20:37:59;17.50;95.20
30385;DHT22;17181;51.002;4.096;2023-10-08T20:40:25;17.40;95.20
30385;DHT22;17181;51.002;4.096;2023-10-08T20:42:53;17.40;95.30
30385;DHT22;17181;51.002;4.096;2023-10-08T20:45:20;17.30;95.40
30385;DHT22;17181;51.002;4.096;2023-10-08T20:47:51;17.30;95.40
30385;DHT22;17181;51.002;4.096;2023-10-08T20:50:19;17.20;95.30
30385;DHT22;17181;51.002;4.096;2023-10-08T20:52:46;17.10;95.30
30385;DHT22;17181;51.002;4.096;2023-10-08T20:55:13;17.10;95.40
30385;DHT22;17181;51.002;4.096;2023-10-08T20:57:46;16.90;95.30
30385;DHT22;17181;51.002;4.096;2023-10-08T21:00:14;16.90;95.50
30385;DHT22;17181;51.002;4.096;2023-10-08T21:02:44;16.80;95.60
30385;DHT22;17181;51.002;4.096;2023-10-08T21:05:10;16.80;95.70
30385;DHT22;17181;51.002;4.096;2023-10-08T21:07:39;16.80;95.80
30385;DHT22;17181;51.002;4.096;2023-10-08T21:10:11;16.70;95.90
30385;DHT22;17181;51.002;4.096;2023-10-08T21:12:39;16.70;95.90
30385;DHT22;17181;51.002;4.096;2023-10-08T21:15:07;16.70;95.90
30385;DHT22;17181;51.002;4.096;2023-10-08T21:17:33;16.60;95.90
30385;DHT22;17181;51.002;4.096;2023-10-08T21:19:59;16.50;95.90
30385;DHT22;17181;51.002;4.096;2023-10-08T21:22:28;16.50;96.00
30385;DHT22;17181;51.002;4.096;2023-10-08T21:24:55;16.40;96.00
30385;DHT22;17181;51.002;4.096;2023-10-08T21:27:21;16.30;96.10
30385;DHT22;17181;51.002;4.096;2023-10-08T21:29:50;16.30;96.20
30385;DHT22;17181;51.002;4.096;2023-10-08T21:32:15;16.20;96.30
30385;DHT22;17181;51.002;4.096;2023-10-08T21:34:42;16.20;96.30
30385;DHT22;17181;51.002;4.096;2023-10-08T21:37:07;16.20;96.30
30385;DHT22;17181;51.002;4.096;2023-10-08T21:39:35;16.10;96.40
30385;DHT22;17181;51.002;4.096;2023-10-08T21:42:01;16.10;96.70
30385;DHT22;17181;51.002;4.096;2023-10-08T21:44:27;16.10;96.80
30385;DHT22;17181;51.002;4.096;2023-10-08T21:46:54;16.10;97.10
30385;DHT22;17181;51.002;4.096;2023-10-08T21:49:20;16.20;97.50
30385;DHT22;17181;51.002;4.096;2023-10-08T21:51:46;16.20;97.80
30385;DHT22;17181;51.002;4.096;2023-10-08T21:54:13;16.30;98.10
30385;DHT22;17181;51.002;4.096;2023-10-08T21:56:40;16.40;98.20
30385;DHT22;17181;51.002;4.096;2023-10-08T21:59:05;16.50;98.30
30385;DHT22;17181;51.002;4.096;2023-10-08T22:01:38;16.60;98.40
30385;DHT22;17181;51.002;4.096;2023-10-08T22:04:07;16.80;98.40
30385;DHT22;17181;51.002;4.096;2023-10-08T22:06:34;16.80;98.30
30385;DHT22;17181;51.002;4.096;2023-10-08T22:09:00;16.80;98.40
30385;DHT22;17181;51.002;4.096;2023-10-08T22:11:33;16.90;98.50
30385;DHT22;17181;51.002;4.096;2023-10-08T22:14:06;17.10;98.60
30385;DHT22;17181;51.002;4.096;2023-10-08T22:16:38;17.10;98.60
30385;DHT22;17181;51.002;4.096;2023-10-08T22:19:07;17.10;98.70
30385;DHT22;17181;51.002;4.096;2023-10-08T22:21:36;17.20;98.80
30385;DHT22;17181;51.002;4.096;2023-10-08T22:24:02;17.20;98.90
30385;DHT22;17181;51.002;4.096;2023-10-08T22:26:40;17.30;98.80
30385;DHT22;17181;51.002;4.096;2023-10-08T22:29:08;17.30;98.80
30385;DHT22;17181;51.002;4.096;2023-10-08T22:31:39;17.40;98.80
30385;DHT22;17181;51.002;4.096;2023-10-08T22:34:10;17.40;98.80
30385;DHT22;17181;51.002;4.096;2023-10-08T22:36:51;17.40;98.70
30385;DHT22;17181;51.002;4.096;2023-10-08T22:39:36;17.40;98.60
30385;DHT22;17181;51.002;4.096;2023-10-08T22:42:01;17.30;98.70
30385;DHT22;17181;51.002;4.096;2023-10-08T22:44:28;17.30;98.60
30385;DHT22;17181;51.002;4.096;2023-10-08T22:46:58;17.30;98.70
30385;DHT22;17181;51.002;4.096;2023-10-08T22:49:50;17.20;99.00
30385;DHT22;17181;51.002;4.096;2023-10-08T22:52:20;17.20;99.20
30385;DHT22;17181;51.002;4.096;2023-10-08T22:54:48;17.20;99.30
30385;DHT22;17181;51.002;4.096;2023-10-08T22:57:15;17.30;99.20
30385;DHT22;17181;51.002;4.096;2023-10-08T22:59:41;17.30;99.20
30385;DHT22;17181;51.002;4.096;2023-10-08T23:18:38;17.60;99.10
30385;DHT22;17181;51.002;4.096;2023-10-08T23:21:06;17.30;99.10
30385;DHT22;17181;51.002;4.096;2023-10-08T23:23:33;17.30;99.10
30385;DHT22;17181;51.002;4.096;2023-10-08T23:25:59;17.30;99.10
30385;DHT22;17181;51.002;4.096;2023-10-08T23:28:26;17.30;99.20
30385;DHT22;17181;51.002;4.096;2023-10-08T23:30:54;17.30;99.30
30385;DHT22;17181;51.002;4.096;2023-10-08T23:33:19;17.20;99.40
30385;DHT22;17181;51.002;4.096;2023-10-08T23:35:47;17.30;99.60
30385;DHT22;17181;51.002;4.096;2023-10-08T23:38:13;17.30;99.50
30385;DHT22;17181;51.002;4.096;2023-10-08T23:40:51;17.30;99.50
30385;DHT22;17181;51.002;4.096;2023-10-08T23:43:23;17.30;99.40
30385;DHT22;17181;51.002;4.096;2023-10-08T23:45:58;17.30;99.40
30385;DHT22;17181;51.002;4.096;2023-10-08T23:48:28;17.30;99.40
30385;DHT22;17181;51.002;4.096;2023-10-08T23:50:56;17.30;99.40
30385;DHT22;17181;51.002;4.096;2023-10-08T23:53:22;17.30;99.70
30385;DHT22;17181;51.002;4.096;2023-10-08T23:56:01;17.30;99.70
30385;DHT22;17181;51.002;4.096;2023-10-08T23:58:36;17.30;99.80
